Time;durP1;ratioP1;P1;durP2;ratioP2;P2;SDS_P1;SDS_P2;PMS_P1;PMS_P2;Temp;Humidity;BMP_temperature;BMP_pressure;BME280_temperature;BME280_humidity;BME280_pressure;Samples;Min_cycle;Max_cycle;Signal;HPM_P1;HPM_P2
2022/03/05 00:01:06;;;;;;;13.90;6.10;;;;;;;0.01;70.39;101179.66;84763;1322;22594;-75
2022/03/05 00:03:18;;;;;;;12.20;5.60;;;;;;;-0.00;70.54;101178.96;84753;1328;22599;-75
2022/03/05 00:05:29;;;;;;;9.60;5.30;;;;;;;-0.00;70.00;101174.67;84754;1329;24254;-76
2022/03/05 00:07:42;;;;;;;11.70;5.20;;;;;;;-0.01;69.76;101177.06;84798;1327;22810;-76
2022/03/05 00:09:52;;;;;;;11.00;5.90;;;;;;;-0.02;69.51;101177.56;84804;1322;22933;-75
2022/03/05 00:12:02;;;;;;;11.60;5.60;;;;;;;-0.02;69.31;101177.89;84805;1328;22579;-75
2022/03/05 00:14:15;;;;;;;7.40;4.60;;;;;;;-0.03;69.16;101181.14;84804;1318;22597;-76
2022/03/05 00:16:25;;;;;;;5.80;4.40;;;;;;;-0.05;68.82;101172.36;84783;1323;25521;-75
2022/03/05 00:18:34;;;;;;;6.30;4.60;;;;;;;-0.07;68.87;101173.86;84787;1327;22598;-76
2022/03/05 00:20:44;;;;;;;6.50;4.10;;;;;;;-0.09;68.35;101171.08;84777;1327;22607;-75
2022/03/05 00:22:54;;;;;;;7.80;4.20;;;;;;;-0.11;68.23;101172.76;84782;1329;22732;-75
2022/03/05 00:25:08;;;;;;;8.10;4.70;;;;;;;-0.14;68.09;101172.20;84833;1325;22637;-78
2022/03/05 00:27:18;;;;;;;13.80;5.40;;;;;;;-0.16;68.19;101168.54;84762;1326;24304;-78
2022/03/05 00:29:28;;;;;;;8.90;4.60;;;;;;;-0.17;68.22;101170.92;84820;1326;23692;-77
2022/03/05 00:31:39;;;;;;;5.80;4.00;;;;;;;-0.18;68.40;101168.50;84737;1326;22838;-79
2022/03/05 00:33:51;;;;;;;7.00;4.10;;;;;;;-0.20;68.40;101168.98;84815;1325;24240;-79
2022/03/05 00:36:00;;;;;;;8.20;3.60;;;;;;;-0.21;68.29;101171.72;84666;1327;22600;-78
2022/03/05 00:38:11;;;;;;;7.60;4.10;;;;;;;-0.21;68.26;101169.30;84793;1327;22750;-78
2022/03/05 00:40:21;;;;;;;5.10;3.20;;;;;;;-0.21;68.08;101169.83;84736;1327;22715;-78
2022/03/05 00:42:34;;;;;;;7.70;4.10;;;;;;;-0.21;68.37;101170.17;84732;1326;25424;-78
2022/03/05 00:44:44;;;;;;;7.40;3.80;;;;;;;-0.19;68.26;101170.56;84786;1329;22816;-77
2022/03/05 00:46:54;;;;;;;40.20;17.50;;;;;;;-0.16;68.20;101170.09;84806;1325;22892;-78
2022/03/05 00:49:04;;;;;;;26.90;11.90;;;;;;;-0.16;67.85;101167.52;84791;1326;22584;-78
2022/03/05 00:51:13;;;;;;;22.60;9.60;;;;;;;-0.19;67.88;101168.14;84773;1327;22573;-79
2022/03/05 00:53:23;;;;;;;8.90;5.90;;;;;;;-0.20;68.17;101167.77;84788;1326;22626;-79
2022/03/05 00:55:33;;;;;;;13.50;5.70;;;;;;;-0.20;67.87;101167.10;84834;1326;24983;-78
2022/03/05 00:57:43;;;;;;;8.80;4.40;;;;;;;-0.23;68.01;101163.96;84780;1326;22584;-78
2022/03/05 00:59:52;;;;;;;5.10;3.00;;;;;;;-0.23;67.67;101158.30;84827;1327;22601;-75
2022/03/05 01:02:01;;;;;;;4.50;2.30;;;;;;;-0.23;66.79;101155.91;84079;1327;1003334;-75
2022/03/05 01:04:14;;;;;;;4.20;3.10;;;;;;;-0.24;65.53;101156.58;84792;1325;22578;-75
2022/03/05 01:06:24;;;;;;;4.60;2.50;;;;;;;-0.26;65.61;101158.09;84789;1322;22598;-79
2022/03/05 01:08:34;;;;;;;5.50;4.00;;;;;;;-0.28;65.87;101160.95;84813;1322;22599;-78
2022/03/05 01:10:44;;;;;;;6.80;3.90;;;;;;;-0.31;66.18;101161.77;84066;1325;1003053;-74
2022/03/05 01:12:53;;;;;;;6.50;4.80;;;;;;;-0.33;66.30;101163.25;84784;1327;24311;-74
2022/03/05 01:15:03;;;;;;;5.70;3.70;;;;;;;-0.37;66.32;101165.24;84778;1326;22650;-77
2022/03/05 01:17:12;;;;;;;6.90;4.30;;;;;;;-0.39;66.55;101163.48;84808;1326;23985;-78
2022/03/05 01:19:23;;;;;;;7.90;4.90;;;;;;;-0.41;66.59;101162.41;84726;1327;24266;-78
2022/03/05 01:21:33;;;;;;;6.90;3.80;;;;;;;-0.43;66.41;101163.06;84713;1327;22604;-78
2022/03/05 01:23:42;;;;;;;7.50;4.50;;;;;;;-0.45;66.65;101161.48;84798;1328;23968;-77
2022/03/05 01:25:50;;;;;;;5.20;3.80;;;;;;;-0.48;66.65;101160.73;84122;1325;1003121;-78
2022/03/05 01:28:00;;;;;;;9.30;5.00;;;;;;;-0.51;67.13;101158.45;84797;1327;25454;-78
2022/03/05 01:30:11;;;;;;;5.60;4.40;;;;;;;-0.55;67.03;101160.77;84839;1327;22727;-78
2022/03/05 01:32:21;;;;;;;7.50;4.00;;;;;;;-0.59;67.20;101161.90;84779;1325;24185;-78
2022/03/05 01:34:30;;;;;;;7.30;4.50;;;;;;;-0.61;67.49;101162.72;84823;1317;22690;-75
2022/03/05 01:36:39;;;;;;;5.80;4.60;;;;;;;-0.62;67.91;101158.92;84033;1327;1003730;-74
2022/03/05 01:38:49;;;;;;;8.30;4.60;;;;;;;-0.62;67.84;101160.30;84743;1327;24281;-75
2022/03/05 01:40:58;;;;;;;8.50;4.80;;;;;;;-0.62;68.02;101158.58;84807;1328;23169;-74
2022/03/05 01:43:11;;;;;;;11.20;5.20;;;;;;;-0.61;68.42;101159.61;84804;1327;22722;-74
2022/03/05 01:45:20;;;;;;;13.10;4.80;;;;;;;-0.57;68.36;101162.62;84694;1332;22621;-75
2022/03/05 01:47:30;;;;;;;7.70;4.60;;;;;;;-0.56;68.17;101164.00;84786;1322;22631;-75
2022/03/05 01:49:40;;;;;;;8.50;5.00;;;;;;;-0.56;68.20;101165.37;84732;1326;22583;-75
2022/03/05 01:51:54;;;;;;;8.40;4.90;;;;;;;-0.59;68.06;101165.51;83996;1330;985364;-75
2022/03/05 01:54:04;;;;;;;8.20;5.90;;;;;;;-0.60;68.32;101169.06;84735;1327;25417;-75
2022/03/05 01:56:14;;;;;;;9.40;5.40;;;;;;;-0.62;68.19;101169.04;84761;1328;23880;-75
2022/03/05 01:58:23;;;;;;;9.40;5.50;;;;;;;-0.65;68.19;101168.64;84811;1327;22808;-75
2022/03/05 02:00:34;;;;;;;15.60;7.10;;;;;;;-0.67;68.61;101167.22;84750;1322;22546;-75
2022/03/05 02:02:43;;;;;;;10.50;5.80;;;;;;;-0.70;68.41;101165.61;84808;1322;23981;-75
2022/03/05 02:04:52;;;;;;;11.30;5.90;;;;;;;-0.73;68.58;101167.60;84773;1328;22668;-78
2022/03/05 02:07:04;;;;;;;13.50;7.10;;;;;;;-0.76;68.84;101164.46;84764;1328;25432;-79
2022/03/05 02:09:14;;;;;;;12.60;7.90;;;;;;;-0.77;68.85;101168.05;84779;1327;22592;-78
2022/03/05 02:11:23;;;;;;;13.00;8.10;;;;;;;-0.77;68.77;101167.01;84817;1329;24238;-77
2022/03/05 02:13:33;;;;;;;13.70;7.00;;;;;;;-0.77;68.91;101168.20;84787;1325;25437;-78
2022/03/05 02:15:42;;;;;;;12.30;7.30;;;;;;;-0.79;68.99;101170.40;84754;1327;23926;-78
2022/03/05 02:17:51;;;;;;;15.10;6.80;;;;;;;-0.78;68.83;101172.30;84736;1326;25367;-78
2022/03/05 02:20:00;;;;;;;12.90;6.10;;;;;;;-0.77;68.96;101168.90;84753;1327;22590;-78
2022/03/05 02:22:10;;;;;;;15.10;7.40;;;;;;;-0.75;68.77;101166.69;84778;1326;23949;-78
2022/03/05 02:24:31;;;;;;;16.20;9.30;;;;;;;-0.72;68.57;101164.36;84743;1330;24029;-79
2022/03/05 02:26:40;;;;;;;14.20;8.00;;;;;;;-0.68;68.83;101164.30;84671;1328;23757;-74
2022/03/05 02:28:52;;;;;;;14.40;7.70;;;;;;;-0.65;68.66;101164.50;84809;1326;25992;-74
2022/03/05 02:31:01;;;;;;;24.30;10.80;;;;;;;-0.63;68.65;101160.62;84808;1327;24353;-78
2022/03/05 02:33:10;;;;;;;13.70;8.10;;;;;;;-0.63;68.63;101161.65;84784;1326;22590;-78
2022/03/05 02:35:19;;;;;;;14.80;7.40;;;;;;;-0.64;68.58;101158.89;84821;1326;22578;-75
2022/03/05 02:37:28;;;;;;;18.30;9.50;;;;;;;-0.66;68.76;101158.33;84780;1326;22571;-74
2022/03/05 02:39:37;;;;;;;30.60;13.00;;;;;;;-0.66;68.72;101158.66;84789;1326;22805;-78
2022/03/05 02:41:46;;;;;;;101.80;31.40;;;;;;;-0.68;68.66;101158.98;84790;1327;22585;-78
2022/03/05 02:43:55;;;;;;;69.60;24.60;;;;;;;-0.68;68.74;101158.10;84083;1326;1003451;-78
2022/03/05 02:46:05;;;;;;;85.30;27.50;;;;;;;-0.71;68.73;101158.74;84698;1322;22625;-78
2022/03/05 02:48:16;;;;;;;76.40;28.90;;;;;;;-0.73;68.82;101157.50;84767;1326;22645;-78
2022/03/05 02:50:28;;;;;;;88.00;30.30;;;;;;;-0.76;68.81;101161.71;84796;1326;24328;-75
2022/03/05 02:52:41;;;;;;;45.20;17.40;;;;;;;-0.78;68.87;101160.13;84771;1327;23124;-75
2022/03/05 02:54:50;;;;;;;23.30;11.20;;;;;;;-0.80;68.66;101162.66;84821;1320;22603;-75
2022/03/05 02:57:00;;;;;;;19.80;10.30;;;;;;;-0.82;68.80;101161.77;84010;1327;1003281;-74
2022/03/05 02:59:09;;;;;;;15.20;8.30;;;;;;;-0.84;68.52;101160.86;84727;1330;22600;-75
2022/03/05 03:01:22;;;;;;;9.20;6.20;;;;;;;-0.85;68.81;101164.25;84810;1329;22709;-78
2022/03/05 03:03:32;;;;;;;8.90;5.10;;;;;;;-0.87;68.59;101167.49;84790;1317;25294;-79
2022/03/05 03:05:42;;;;;;;;;;;;;;;-0.87;68.70;101167.84;84793;1326;26416;-75
2022/03/05 03:07:56;;;;;;;18.70;7.70;;;;;;;-0.87;68.70;101168.86;84729;1327;22588;-74
2022/03/05 03:10:07;;;;;;;27.90;10.40;;;;;;;-0.84;68.71;101173.20;84691;1329;22570;-75
2022/03/05 03:12:20;;;;;;;24.50;10.90;;;;;;;-0.81;68.76;101169.66;84731;1330;22605;-74
2022/03/05 03:14:29;;;;;;;56.50;19.20;;;;;;;-0.79;68.41;101169.20;84843;1326;22842;-76
2022/03/05 03:16:39;;;;;;;72.70;25.10;;;;;;;-0.78;68.53;101166.48;84768;1329;24243;-77
2022/03/05 03:18:51;;;;;;;63.30;24.70;;;;;;;-0.76;68.56;101166.52;84774;1325;23878;-78
2022/03/05 03:21:04;;;;;;;38.30;16.00;;;;;;;-0.74;68.41;101164.31;84826;1325;22592;-75
2022/03/05 03:23:13;;;;;;;28.90;13.80;;;;;;;-0.74;68.47;101166.91;84729;1328;22736;-75
2022/03/05 03:25:23;;;;;;;17.60;8.80;;;;;;;-0.76;68.28;101163.59;84725;1327;25437;-78
2022/03/05 03:27:36;;;;;;;9.60;5.70;;;;;;;-0.76;68.53;101164.45;84762;1327;22671;-78
2022/03/05 03:29:46;;;;;;;7.70;5.00;;;;;;;-0.76;68.70;101164.29;84753;1327;22750;-78
2022/03/05 03:31:56;;;;;;;10.10;5.70;;;;;;;-0.76;68.61;101165.98;84662;1325;23914;-78
2022/03/05 03:34:08;;;;;;;9.50;4.70;;;;;;;-0.77;68.28;101165.12;84795;1328;22591;-77
2022/03/05 03:36:18;;;;;;;5.90;4.20;;;;;;;-0.78;68.17;101169.38;84790;1325;24251;-74
2022/03/05 03:38:27;;;;;;;8.00;5.00;;;;;;;-0.80;68.15;101171.05;84725;1326;22670;-75
2022/03/05 03:40:39;;;;;;;11.40;5.10;;;;;;;-0.81;68.38;101171.71;84816;1325;23882;-77
2022/03/05 03:42:50;;;;;;;6.90;5.10;;;;;;;-0.83;68.33;101170.66;84771;1327;22747;-78
2022/03/05 03:44:59;;;;;;;7.80;4.70;;;;;;;-0.83;68.40;101170.65;84762;1327;25428;-73
2022/03/05 03:47:12;;;;;;;6.80;4.10;;;;;;;-0.85;68.04;101172.66;84717;1328;25322;-74
2022/03/05 03:49:21;;;;;;;6.50;4.00;;;;;;;-0.85;68.05;101173.00;84784;1326;22739;-74
2022/03/05 03:51:31;;;;;;;5.90;4.00;;;;;;;-0.86;68.07;101171.96;84699;1330;22642;-74
2022/03/05 03:53:43;;;;;;;6.70;3.60;;;;;;;-0.86;68.07;101174.02;84710;1328;22828;-74
2022/03/05 03:55:53;;;;;;;5.30;3.30;;;;;;;-0.85;67.87;101179.86;84090;1325;1016724;-77
2022/03/05 03:58:06;;;;;;;3.50;2.90;;;;;;;-0.84;67.94;101178.16;84785;1327;24165;-77
2022/03/05 04:00:19;;;;;;;6.70;4.10;;;;;;;-0.81;67.87;101178.23;84804;1325;22581;-75
2022/03/05 04:02:32;;;;;;;8.80;3.70;;;;;;;-0.79;67.72;101177.75;84729;1329;24269;-74
2022/03/05 04:04:44;;;;;;;5.00;3.50;;;;;;;-0.76;67.63;101177.64;84769;1327;23956;-76
2022/03/05 04:09:21;;;;;;;7.30;3.80;;;;;;;-0.73;67.61;101181.98;84767;1326;22646;-74
2022/03/05 04:11:29;;;;;;;;;;;;;;;-0.73;67.76;101180.11;84802;1327;24208;-74
2022/03/05 04:13:38;;;;;;;5.20;3.30;;;;;;;-0.73;67.75;101185.77;84791;1326;25486;-75
2022/03/05 04:15:48;;;;;;;6.90;4.80;;;;;;;-0.72;67.31;101185.61;84690;1327;23226;-77
2022/03/05 04:18:01;;;;;;;5.70;4.00;;;;;;;-0.71;67.25;101187.35;84019;1327;1003553;-78
2022/03/05 04:20:12;;;;;;;5.70;4.00;;;;;;;-0.72;67.41;101188.88;84787;1327;24213;-78
2022/03/05 04:22:21;;;;;;;6.50;4.10;;;;;;;-0.73;67.23;101185.75;84808;1327;22832;-78
2022/03/05 04:24:30;;;;;;;4.70;3.50;;;;;;;-0.75;67.03;101184.69;84087;1325;1003215;-77
2022/03/05 04:26:42;;;;;;;4.60;3.30;;;;;;;-0.75;66.91;101186.73;84770;1327;25485;-78
2022/03/05 04:28:52;;;;;;;5.60;3.70;;;;;;;-0.76;66.90;101187.23;84770;1326;22943;-77
2022/03/05 04:31:01;;;;;;;5.10;3.20;;;;;;;-0.78;67.18;101189.10;84079;1325;1003041;-78
2022/03/05 04:33:10;;;;;;;4.40;3.70;;;;;;;-0.79;67.06;101190.77;84099;1326;1003645;-78
2022/03/05 04:35:22;;;;;;;4.50;3.20;;;;;;;-0.81;66.93;101194.16;84764;1328;23872;-78
2022/03/05 04:37:32;;;;;;;6.10;3.60;;;;;;;-0.82;67.04;101196.03;84720;1328;22588;-78
2022/03/05 04:39:41;;;;;;;5.70;3.50;;;;;;;-0.83;67.12;101190.68;84806;1326;22763;-75
2022/03/05 04:41:50;;;;;;;4.90;3.00;;;;;;;-0.85;66.97;101190.14;84693;1326;25440;-74
2022/03/05 04:44:00;;;;;;;4.80;3.60;;;;;;;-0.87;67.12;101190.61;84742;1327;23096;-74
2022/03/05 04:46:09;;;;;;;5.10;3.30;;;;;;;-0.88;67.20;101192.98;84799;1327;22586;-76
2022/03/05 04:48:18;;;;;;;4.90;3.40;;;;;;;-0.88;67.30;101193.67;84780;1326;26403;-74
2022/03/05 04:50:27;;;;;;;4.70;2.90;;;;;;;-0.86;67.26;101193.54;84791;1327;23969;-76
2022/03/05 04:52:40;;;;;;;4.10;3.10;;;;;;;-0.85;67.31;101194.08;84761;1326;22806;-75
2022/03/05 04:54:49;;;;;;;4.20;3.00;;;;;;;-0.82;67.32;101194.14;84761;1328;23633;-78
2022/03/05 04:56:58;;;;;;;3.90;2.70;;;;;;;-0.79;67.32;101197.13;84764;1327;23971;-78
2022/03/05 04:59:07;;;;;;;5.30;3.30;;;;;;;-0.75;67.25;101197.36;84725;1327;24276;-78
2022/03/05 05:01:18;;;;;;;3.70;3.20;;;;;;;-0.72;67.11;101199.31;84753;1324;22570;-75
2022/03/05 05:03:28;;;;;;;4.70;3.40;;;;;;;-0.70;67.13;101201.23;84728;1329;22868;-74
2022/03/05 05:05:38;;;;;;;7.90;3.50;;;;;;;-0.71;67.05;101205.16;84785;1325;22574;-75
2022/03/05 05:07:46;;;;;;;4.70;3.20;;;;;;;-0.72;66.73;101204.96;84075;1325;1003940;-74
2022/03/05 05:09:55;;;;;;;4.40;2.90;;;;;;;-0.74;66.61;101204.92;84799;1327;22721;-78
2022/03/05 05:12:05;;;;;;;5.70;3.20;;;;;;;-0.75;66.99;101208.85;84783;1326;22610;-78
2022/03/05 05:14:17;;;;;;;6.80;3.10;;;;;;;-0.76;66.81;101205.90;84756;1326;22582;-78
2022/03/05 05:16:26;;;;;;;5.20;3.10;;;;;;;-0.78;66.85;101206.23;84756;1326;22717;-78
2022/03/05 05:18:39;;;;;;;5.50;3.70;;;;;;;-0.78;66.95;101209.14;84787;1326;24482;-78
2022/03/05 05:20:48;;;;;;;3.20;2.90;;;;;;;-0.80;66.94;101209.24;84695;1327;26480;-74
2022/03/05 05:22:58;;;;;;;4.70;2.70;;;;;;;-0.82;67.02;101215.39;84776;1325;22616;-75
2022/03/05 05:25:08;;;;;;;6.90;3.50;;;;;;;-0.84;67.02;101216.55;84747;1326;22639;-75
2022/03/05 05:27:17;;;;;;;5.90;2.70;;;;;;;-0.84;67.09;101217.23;84783;1325;22611;-75
2022/03/05 05:29:27;;;;;;;5.10;3.10;;;;;;;-0.85;67.07;101214.98;84784;1324;24296;-76
2022/03/05 05:31:37;;;;;;;5.30;3.30;;;;;;;-0.85;67.07;101222.67;84771;1326;22613;-76
2022/03/05 05:33:49;;;;;;;4.80;3.40;;;;;;;-0.86;66.92;101224.37;84723;1327;22585;-75
2022/03/05 05:35:58;;;;;;;4.00;2.80;;;;;;;-0.87;66.95;101225.73;84766;1325;22593;-78
2022/03/05 05:38:07;;;;;;;9.00;4.00;;;;;;;-0.88;67.07;101229.66;84795;1326;24241;-78
2022/03/05 05:40:18;;;;;;;6.30;3.20;;;;;;;-0.88;66.85;101229.83;84088;1318;1004240;-78
2022/03/05 05:42:28;;;;;;;6.20;3.50;;;;;;;-0.88;66.92;101235.31;84799;1327;24261;-79
2022/03/05 05:44:38;;;;;;;8.30;3.50;;;;;;;-0.87;66.97;101240.64;84802;1325;25297;-75
2022/03/05 05:46:50;;;;;;;5.40;3.10;;;;;;;-0.84;67.02;101240.67;84768;1323;22804;-75
2022/03/05 05:48:59;;;;;;;4.80;2.80;;;;;;;-0.82;66.82;101237.65;84777;1326;24354;-75
2022/03/05 05:51:09;;;;;;;5.40;3.70;;;;;;;-0.78;66.90;101238.25;84781;1326;24273;-75
2022/03/05 05:53:18;;;;;;;6.40;2.80;;;;;;;-0.72;66.89;101243.52;84802;1322;22936;-75
2022/03/05 05:55:26;;;;;;;;;;;;;;;-0.67;66.62;101246.20;84089;1324;1003191;-75
2022/03/05 05:57:35;;;;;;;5.10;3.40;;;;;;;-0.65;66.71;101247.45;84781;1327;22608;-75
2022/03/05 05:59:44;;;;;;;6.10;3.90;;;;;;;-0.58;66.83;101247.08;84782;1325;22868;-74
2022/03/05 06:01:53;;;;;;;6.40;3.00;;;;;;;-0.55;66.57;101247.14;84781;1327;23926;-74
2022/03/05 06:04:05;;;;;;;5.00;3.20;;;;;;;-0.53;66.45;101245.31;84785;1327;24228;-75
2022/03/05 06:06:18;;;;;;;9.10;2.70;;;;;;;-0.51;66.56;101245.52;84753;1327;22935;-78
2022/03/05 06:08:27;;;;;;;4.70;3.20;;;;;;;-0.48;66.56;101250.39;84779;1326;22770;-78
2022/03/05 06:10:37;;;;;;;7.90;3.70;;;;;;;-0.46;66.09;101250.08;84800;1327;24270;-78
2022/03/05 06:12:47;;;;;;;5.80;3.60;;;;;;;-0.44;66.09;101251.81;84774;1325;22723;-78
2022/03/05 06:14:58;;;;;;;4.90;3.30;;;;;;;-0.43;66.05;101254.42;84795;1326;22629;-75
2022/03/05 06:17:08;;;;;;;7.60;3.70;;;;;;;-0.41;66.03;101256.86;84792;1327;25275;-74
2022/03/05 06:19:17;;;;;;;8.30;3.10;;;;;;;-0.39;66.22;101254.34;84795;1328;24097;-74
2022/03/05 06:21:27;;;;;;;3.60;3.20;;;;;;;-0.38;65.95;101254.36;84792;1326;22585;-76
2022/03/05 06:23:37;;;;;;;7.30;3.90;;;;;;;-0.37;66.01;101261.06;84769;1327;22588;-75
2022/03/05 06:25:50;;;;;;;4.10;3.40;;;;;;;-0.34;65.81;101265.23;84785;1327;22619;-74
2022/03/05 06:27:59;;;;;;;3.30;2.90;;;;;;;-0.33;65.69;101267.33;84756;1327;22612;-77
2022/03/05 06:30:11;;;;;;;5.80;3.10;;;;;;;-0.32;65.84;101267.35;84780;1326;24845;-78
2022/03/05 06:32:21;;;;;;;4.40;3.20;;;;;;;-0.29;65.85;101269.29;84797;1327;23053;-78
2022/03/05 06:34:33;;;;;;;4.40;3.50;;;;;;;-0.27;65.76;101271.56;84084;1326;1003184;-77
2022/03/05 06:36:42;;;;;;;6.40;3.20;;;;;;;-0.24;65.60;101270.59;84789;1325;22600;-78
2022/03/05 06:38:54;;;;;;;5.40;3.10;;;;;;;-0.20;65.51;101273.73;84072;1326;1003762;-78
2022/03/05 06:41:04;;;;;;;5.10;3.40;;;;;;;-0.19;65.67;101275.34;84784;1326;22605;-74
2022/03/05 06:43:16;;;;;;;7.10;3.50;;;;;;;-0.15;65.45;101273.48;84776;1323;22602;-75
2022/03/05 06:45:28;;;;;;;7.40;3.90;;;;;;;-0.12;65.36;101275.96;84729;1327;25964;-78
2022/03/05 06:47:36;;;;;;;;;;;;;;;-0.09;65.58;101279.48;84805;1321;22806;-78
2022/03/05 06:49:46;;;;;;;4.40;3.20;;;;;;;-0.07;65.74;101274.19;84783;1322;22595;-74
2022/03/05 06:51:58;;;;;;;6.20;4.70;;;;;;;-0.02;65.69;101281.66;84801;1325;25479;-74
2022/03/05 06:54:09;;;;;;;8.50;3.70;;;;;;;0.03;65.37;101283.13;84665;1328;22734;-75
2022/03/05 06:56:19;;;;;;;8.60;5.20;;;;;;;0.06;65.11;101282.86;84709;1326;24230;-78
2022/03/05 06:58:33;;;;;;;3.70;3.20;;;;;;;0.10;64.91;101288.92;84784;1327;25433;-77
2022/03/05 07:00:43;;;;;;;7.90;3.70;;;;;;;0.14;65.13;101289.34;84775;1326;22876;-74
2022/03/05 07:02:56;;;;;;;5.10;4.00;;;;;;;0.17;65.02;101292.52;84773;1325;22940;-74
2022/03/05 07:05:07;;;;;;;5.60;3.40;;;;;;;0.21;65.00;101293.44;84785;1327;22616;-77
2022/03/05 07:07:17;;;;;;;6.50;3.60;;;;;;;0.26;65.00;101291.81;84703;1327;23927;-77
2022/03/05 07:09:27;;;;;;;8.00;3.70;;;;;;;0.31;65.01;101292.60;84016;1327;1002955;-75
2022/03/05 07:11:36;;;;;;;5.90;3.90;;;;;;;0.37;64.84;101291.34;84769;1318;22585;-78
2022/03/05 07:13:46;;;;;;;6.40;3.90;;;;;;;0.43;64.73;101292.30;84782;1322;22703;-78
2022/03/05 07:15:59;;;;;;;7.50;3.50;;;;;;;0.48;64.60;101290.67;84738;1327;23950;-75
2022/03/05 07:18:12;;;;;;;7.00;4.50;;;;;;;0.53;64.78;101288.69;84672;1327;25631;-75
2022/03/05 07:20:21;;;;;;;8.20;3.60;;;;;;;0.58;64.37;101290.67;84763;1325;24117;-77
2022/03/05 07:22:31;;;;;;;5.40;3.60;;;;;;;0.64;63.96;101288.54;84754;1327;22889;-77
2022/03/05 07:24:44;;;;;;;4.60;3.80;;;;;;;0.68;63.73;101289.98;84739;1327;25412;-74
2022/03/05 07:26:57;;;;;;;6.80;4.20;;;;;;;0.72;63.16;101292.80;84730;1327;24280;-75
2022/03/05 07:29:08;;;;;;;4.00;3.00;;;;;;;0.76;63.23;101290.30;84780;1327;22966;-75
2022/03/05 07:31:17;;;;;;;5.20;3.40;;;;;;;0.81;63.28;101295.88;84803;1325;22565;-78
2022/03/05 07:33:27;;;;;;;6.60;4.40;;;;;;;0.87;63.02;101298.56;84748;1326;23930;-77
2022/03/05 07:35:36;;;;;;;6.00;4.50;;;;;;;0.94;63.02;101304.86;84780;1327;22700;-77
2022/03/05 07:37:46;;;;;;;5.20;3.60;;;;;;;0.99;62.75;101303.90;84776;1324;22617;-79
2022/03/05 07:39:59;;;;;;;4.80;3.70;;;;;;;1.04;62.73;101301.58;84768;1327;22579;-75
2022/03/05 07:42:10;;;;;;;6.50;3.80;;;;;;;1.11;62.63;101302.89;84803;1319;22841;-75
2022/03/05 07:44:19;;;;;;;4.70;3.40;;;;;;;1.16;62.43;101305.02;84696;1328;24243;-75
2022/03/05 07:46:28;;;;;;;4.80;4.20;;;;;;;1.21;62.68;101302.69;84706;1327;22585;-78
2022/03/05 07:48:37;;;;;;;11.80;7.80;;;;;;;1.27;61.85;101302.61;84795;1327;22535;-78
2022/03/05 07:50:51;;;;;;;8.60;5.50;;;;;;;1.31;61.57;101303.52;84678;1328;22681;-78
2022/03/05 07:53:01;;;;;;;11.80;7.40;;;;;;;1.36;60.90;101304.63;84722;1321;22816;-78
2022/03/05 07:55:13;;;;;;;13.00;7.70;;;;;;;1.41;61.44;101301.61;84772;1327;22833;-74
2022/03/05 07:57:25;;;;;;;7.50;3.70;;;;;;;1.47;60.76;101303.92;84796;1327;22613;-74
2022/03/05 07:59:34;;;;;;;10.00;6.60;;;;;;;1.53;61.13;101302.81;84076;1326;1004030;-76
2022/03/05 08:01:43;;;;;;;6.90;4.10;;;;;;;1.60;61.09;101302.23;84784;1326;22838;-78
2022/03/05 08:03:52;;;;;;;6.80;3.80;;;;;;;1.68;61.13;101301.30;84780;1327;22600;-78
2022/03/05 08:06:02;;;;;;;6.00;4.10;;;;;;;1.76;60.33;101303.80;84800;1325;22584;-75
2022/03/05 08:08:11;;;;;;;10.00;3.70;;;;;;;1.84;60.50;101301.67;84716;1327;24109;-74
2022/03/05 08:10:20;;;;;;;7.20;3.90;;;;;;;1.95;60.64;101302.15;84723;1327;22761;-75
2022/03/05 08:12:30;;;;;;;10.60;5.90;;;;;;;2.07;60.53;101303.34;84679;1328;22730;-75
2022/03/05 08:14:44;;;;;;;10.50;6.50;;;;;;;2.16;59.78;101304.64;84774;1321;22577;-78
2022/03/05 08:16:54;;;;;;;6.30;4.80;;;;;;;2.28;60.28;101305.81;84674;1327;23918;-77
2022/03/05 08:19:04;;;;;;;10.10;6.00;;;;;;;2.43;59.69;101311.31;84784;1326;22589;-86
2022/03/05 08:21:13;;;;;;;13.40;7.90;;;;;;;2.53;58.61;101309.33;84833;1327;22893;-75
2022/03/05 08:23:26;;;;;;;13.80;6.80;;;;;;;2.55;58.11;101305.90;84778;1327;24430;-74
2022/03/05 08:25:36;;;;;;;6.60;4.80;;;;;;;2.60;58.17;101312.16;84752;1327;24435;-78
2022/03/05 08:27:49;;;;;;;11.20;4.60;;;;;;;2.67;58.06;101308.95;84810;1326;22613;-78
2022/03/05 08:29:59;;;;;;;4.50;4.10;;;;;;;2.73;58.18;101311.09;84742;1327;22629;-73
2022/03/05 08:32:10;;;;;;;6.80;5.50;;;;;;;2.78;58.08;101311.64;84721;1327;22709;-75
2022/03/05 08:34:19;;;;;;;8.00;4.00;;;;;;;2.87;57.93;101312.23;84757;1321;22677;-76
2022/03/05 08:36:29;;;;;;;9.60;4.80;;;;;;;2.90;56.60;101310.20;84718;1327;22714;-75
2022/03/05 08:38:38;;;;;;;7.20;5.20;;;;;;;2.90;57.14;101315.35;84771;1323;23899;-76
2022/03/05 08:40:46;;;;;;;9.80;4.60;;;;;;;2.92;56.93;101315.39;84771;1327;22844;-79
2022/03/05 08:43:00;;;;;;;5.30;4.40;;;;;;;2.95;57.08;101319.73;84789;1327;22572;-79
2022/03/05 08:45:12;;;;;;;17.30;9.10;;;;;;;2.98;56.16;101321.12;84726;1324;22627;-76
2022/03/05 08:47:26;;;;;;;12.90;6.70;;;;;;;2.98;55.95;101325.42;84749;1326;22784;-75
2022/03/05 08:49:36;;;;;;;13.70;7.10;;;;;;;3.00;55.82;101321.29;84793;1325;22781;-78
2022/03/05 08:51:47;;;;;;;16.80;10.10;;;;;;;3.04;55.65;101324.09;84706;1328;24260;-79
2022/03/05 08:53:57;;;;;;;6.00;3.80;;;;;;;3.10;56.30;101323.80;84704;1327;23889;-78
2022/03/05 08:56:10;;;;;;;5.70;3.70;;;;;;;3.22;55.65;101322.86;84787;1325;24005;-77
2022/03/05 08:58:20;;;;;;;5.10;3.60;;;;;;;3.29;54.89;101323.42;84811;1327;22820;-77
2022/03/05 09:00:32;;;;;;;4.90;3.40;;;;;;;3.33;54.43;101326.55;84797;1318;22604;-79
2022/03/05 09:02:43;;;;;;;5.10;3.50;;;;;;;3.36;54.52;101322.45;84706;1327;22596;-79
2022/03/05 09:04:53;;;;;;;7.00;4.40;;;;;;;3.42;54.42;101323.00;84732;1325;22668;-78
2022/03/05 09:07:02;;;;;;;15.20;7.50;;;;;;;3.47;54.43;101331.30;84797;1326;25428;-79
2022/03/05 09:09:14;;;;;;;8.10;4.70;;;;;;;3.49;52.70;101330.45;84782;1329;22766;-79
2022/03/05 09:11:23;;;;;;;7.20;4.80;;;;;;;3.46;52.17;101328.88;84791;1326;22600;-80
2022/03/05 09:13:32;;;;;;;28.50;11.20;;;;;;;3.42;52.49;101330.76;84766;1325;22976;-79
2022/03/05 09:15:42;;;;;;;23.30;9.40;;;;;;;3.43;51.52;101330.41;84086;1327;1003284;-78
2022/03/05 09:17:51;;;;;;;13.80;6.20;;;;;;;3.39;52.21;101327.97;84687;1330;22750;-79
2022/03/05 09:20:02;;;;;;;22.80;9.80;;;;;;;3.40;52.25;101329.20;84692;1327;22583;-75
2022/03/05 09:22:16;;;;;;;7.90;4.80;;;;;;;3.42;52.38;101327.48;84739;1328;23993;-75
2022/03/05 09:24:26;;;;;;;8.40;4.30;;;;;;;3.43;51.86;101331.11;84831;1327;22590;-76
2022/03/05 09:26:37;;;;;;;15.70;8.10;;;;;;;3.41;51.83;101329.71;84805;1325;24016;-78
2022/03/05 09:28:47;;;;;;;41.50;14.50;;;;;;;3.40;51.97;101332.12;84819;1326;22594;-74
2022/03/05 09:31:00;;;;;;;17.70;7.50;;;;;;;3.43;51.90;101331.10;84863;1326;22804;-74
2022/03/05 09:33:14;;;;;;;12.60;5.00;;;;;;;3.47;51.08;101334.41;84803;1323;23953;-75
2022/03/05 09:35:23;;;;;;;9.20;4.60;;;;;;;3.50;51.35;101334.62;84699;1327;22590;-75
2022/03/05 09:37:34;;;;;;;14.50;6.60;;;;;;;3.55;51.54;101334.98;84784;1327;22833;-75
2022/03/05 09:39:47;;;;;;;20.00;7.90;;;;;;;3.58;51.43;101336.20;84804;1327;22600;-74
2022/03/05 09:41:59;;;;;;;25.90;10.90;;;;;;;3.58;50.47;101338.63;84043;1327;1003130;-75
2022/03/05 09:44:11;;;;;;;15.30;9.50;;;;;;;3.54;50.38;101343.09;84713;1327;22689;-77
2022/03/05 09:46:26;;;;;;;19.70;13.50;;;;;;;3.43;50.60;101339.55;84819;1328;22647;-78
2022/03/05 09:48:39;;;;;;;12.30;8.40;;;;;;;3.36;50.89;101341.75;84783;1326;22755;-78
2022/03/05 09:50:50;;;;;;;7.60;4.70;;;;;;;3.29;50.76;101342.91;84740;1327;22965;-76
2022/03/05 09:53:00;;;;;;;5.40;3.20;;;;;;;3.24;51.03;101344.60;84560;1326;22641;-75
2022/03/05 09:55:12;;;;;;;4.00;3.10;;;;;;;3.18;51.22;101347.66;84719;1327;25439;-78
2022/03/05 09:57:26;;;;;;;8.50;3.60;;;;;;;3.13;50.78;101351.05;84765;1327;22590;-78
2022/03/05 09:59:36;;;;;;;3.70;2.70;;;;;;;3.06;50.75;101351.88;84779;1329;23912;-75
2022/03/05 10:01:46;;;;;;;;;;;;;;;3.00;50.98;101358.36;84788;1327;23962;-76
2022/03/05 10:03:55;;;;;;;;;;;;;;;2.91;50.93;101358.80;84808;1327;22553;-76
2022/03/05 10:06:23;;;;;;;4.10;2.50;;;;;;;2.83;50.82;101358.05;84844;1326;22563;-73
2022/03/05 10:08:33;;;;;;;3.30;2.30;;;;;;;2.76;50.91;101361.93;84692;1328;25250;-72